createdAt,value
2019-04-29T00:00:44.144Z,1009.15
2019-04-29T00:01:44.162Z,1009.15
2019-04-29T00:02:45.193Z,1009.17
2019-04-29T00:03:44.200Z,1009.16
2019-04-29T00:04:44.223Z,1009.16
2019-04-29T00:05:44.242Z,1009.23
2019-04-29T00:06:44.260Z,1009.25
2019-04-29T00:07:44.282Z,1009.28
2019-04-29T00:08:45.311Z,1009.29
2019-04-29T00:09:44.319Z,1009.30
2019-04-29T00:10:44.339Z,1009.31
2019-04-29T00:11:44.359Z,1009.32
2019-04-29T00:12:44.393Z,1009.37
2019-04-29T00:13:44.401Z,1009.39
2019-04-29T00:14:45.432Z,1009.36
2019-04-29T00:15:44.439Z,1009.40
2019-04-29T00:16:44.463Z,1009.39
2019-04-29T00:17:44.480Z,1009.44
2019-04-29T00:18:44.499Z,1009.44
2019-04-29T00:19:44.520Z,1009.46
2019-04-29T00:20:45.549Z,1009.47
2019-04-29T00:21:44.559Z,1009.50
2019-04-29T00:22:44.579Z,1009.51
2019-04-29T00:23:44.599Z,1009.50
2019-04-29T00:24:44.618Z,1009.49
2019-04-29T00:25:44.638Z,1009.57
2019-04-29T00:26:45.675Z,1009.59
2019-04-29T00:27:44.691Z,1009.65
2019-04-29T00:28:44.696Z,1009.67
2019-04-29T00:29:44.719Z,1009.72
2019-04-29T00:30:44.738Z,1009.68
2019-04-29T00:31:44.762Z,1009.74
2019-04-29T00:32:45.788Z,1009.76
2019-04-29T00:33:44.797Z,1009.77
2019-04-29T00:34:44.817Z,1009.80
2019-04-29T00:35:44.837Z,1009.77
2019-04-29T00:36:44.853Z,1009.80
2019-04-29T00:37:44.879Z,1009.78
2019-04-29T00:38:45.912Z,1009.78
2019-04-29T00:39:44.917Z,1009.86
2019-04-29T00:40:44.938Z,1009.84
2019-04-29T00:41:44.958Z,1009.86
2019-04-29T00:42:44.976Z,1009.84
2019-04-29T00:43:44.996Z,1009.86
2019-04-29T00:44:46.024Z,1009.86
2019-04-29T00:45:45.036Z,1009.86
2019-04-29T00:46:45.056Z,1009.84
2019-04-29T00:47:45.076Z,1009.91
2019-04-29T00:48:45.097Z,1009.90
2019-04-29T00:49:45.119Z,1009.89
2019-04-29T00:50:46.147Z,1009.86
2019-04-29T00:51:45.163Z,1009.87
2019-04-29T00:52:45.175Z,1009.88
2019-04-29T00:53:45.194Z,1009.90
2019-04-29T00:54:45.215Z,1009.87
2019-04-29T00:55:45.242Z,1009.86
2019-04-29T00:56:46.267Z,1009.89
2019-04-29T00:57:45.275Z,1009.86
2019-04-29T00:58:45.296Z,1009.84
2019-04-29T00:59:45.316Z,1009.86
2019-04-29T01:00:45.335Z,1009.88
2019-04-29T01:01:45.357Z,1009.90
2019-04-29T01:02:46.387Z,1009.90
2019-04-29T01:03:45.395Z,1009.92
2019-04-29T01:04:45.417Z,1009.93
2019-04-29T01:05:45.437Z,1009.92
2019-04-29T01:06:45.462Z,1009.91
2019-04-29T01:07:45.475Z,1009.89
2019-04-29T01:08:46.506Z,1009.90
2019-04-29T01:09:45.516Z,1009.88
2019-04-29T01:10:45.536Z,1009.86
2019-04-29T01:11:45.561Z,1009.86
2019-04-29T01:12:45.578Z,1009.84
2019-04-29T01:13:45.596Z,1009.80
2019-04-29T01:14:46.628Z,1009.82
2019-04-29T01:15:45.637Z,1009.79
2019-04-29T01:16:45.657Z,1009.80
2019-04-29T01:17:45.676Z,1009.78
2019-04-29T01:18:45.700Z,1009.79
2019-04-29T01:19:45.729Z,1009.82
2019-04-29T01:20:46.755Z,1009.84
2019-04-29T01:21:45.757Z,1009.85
2019-04-29T01:22:45.778Z,1009.90
2019-04-29T01:23:45.798Z,1009.88
2019-04-29T01:24:45.817Z,1009.89
2019-04-29T01:25:45.839Z,1009.92
2019-04-29T01:26:46.875Z,1009.89
2019-04-29T01:27:45.880Z,1009.89
2019-04-29T01:28:45.896Z,1009.85
2019-04-29T01:29:45.920Z,1009.85
2019-04-29T01:30:45.942Z,1009.85
2019-04-29T01:31:45.966Z,1009.87
2019-04-29T01:32:46.991Z,1009.86
2019-04-29T01:33:46.000Z,1009.84
2019-04-29T01:34:46.024Z,1009.90
2019-04-29T01:35:46.039Z,1009.91
2019-04-29T01:36:46.059Z,1009.89
2019-04-29T01:37:46.089Z,1009.95
2019-04-29T01:38:48.699Z,1009.96
2019-04-29T01:39:46.122Z,1009.95
2019-04-29T01:40:46.143Z,1009.98
2019-04-29T01:41:46.160Z,1009.96
2019-04-29T01:42:46.184Z,1009.96
2019-04-29T01:43:46.204Z,1010.00
2019-04-29T01:44:47.239Z,1009.99
2019-04-29T01:45:46.245Z,1010.01
2019-04-29T01:46:46.287Z,1009.98
2019-04-29T01:47:46.286Z,1010.03
2019-04-29T01:48:46.305Z,1010.01
2019-04-29T01:49:46.328Z,1010.01
2019-04-29T01:50:47.361Z,1010.01
2019-04-29T01:51:46.369Z,1009.96
2019-04-29T01:52:46.386Z,1010.01
2019-04-29T01:53:46.410Z,1009.99
2019-04-29T01:54:46.429Z,1010.03
2019-04-29T01:55:46.450Z,1010.00
2019-04-29T01:56:47.482Z,1010.05
2019-04-29T01:57:46.527Z,1010.03
2019-04-29T01:58:46.521Z,1010.07
2019-04-29T01:59:46.534Z,1010.08
2019-04-29T02:00:46.554Z,1010.10
2019-04-29T02:01:46.575Z,1010.10
2019-04-29T02:02:47.603Z,1010.09
2019-04-29T02:03:46.614Z,1010.07
2019-04-29T02:04:46.673Z,1010.04
2019-04-29T02:05:46.670Z,1010.07
2019-04-29T02:06:46.679Z,1010.06
2019-04-29T02:07:46.700Z,1010.09
2019-04-29T02:08:47.809Z,1010.12
2019-04-29T02:09:46.737Z,1010.09
2019-04-29T02:10:46.758Z,1010.09
2019-04-29T02:11:46.778Z,1010.12
2019-04-29T02:12:46.799Z,1010.09
2019-04-29T02:13:46.823Z,1010.11
2019-04-29T02:14:47.855Z,1010.10
2019-04-29T02:15:46.865Z,1010.12
2019-04-29T02:16:46.881Z,1010.08
2019-04-29T02:17:46.901Z,1010.06
2019-04-29T02:18:46.926Z,1010.05
2019-04-29T02:19:46.954Z,1010.05
2019-04-29T02:20:47.998Z,1010.03
2019-04-29T02:21:47.018Z,1010.01
2019-04-29T02:22:47.007Z,1010.02
2019-04-29T02:23:47.028Z,1010.02
2019-04-29T02:24:47.045Z,1010.00
2019-04-29T02:25:47.068Z,1010.02
2019-04-29T02:26:48.101Z,1010.06
2019-04-29T02:27:47.109Z,1010.06
2019-04-29T02:28:47.130Z,1010.08
2019-04-29T02:29:47.153Z,1010.06
2019-04-29T02:30:47.173Z,1010.02
2019-04-29T02:31:47.194Z,1010.02
2019-04-29T02:32:48.224Z,1009.97
2019-04-29T02:33:47.234Z,1009.95
2019-04-29T02:34:47.263Z,1009.98
2019-04-29T02:35:47.282Z,1009.95
2019-04-29T02:36:47.296Z,1009.93
2019-04-29T02:37:47.316Z,1009.90
2019-04-29T02:38:48.349Z,1009.89
2019-04-29T02:39:47.377Z,1009.88
2019-04-29T02:40:47.382Z,1009.85
2019-04-29T02:41:47.400Z,1009.90
2019-04-29T02:42:47.422Z,1009.88
2019-04-29T02:43:47.446Z,1009.88
2019-04-29T02:44:48.476Z,1009.85
2019-04-29T02:45:47.484Z,1009.83
2019-04-29T02:46:47.504Z,1009.79
2019-04-29T02:47:47.525Z,1009.79
2019-04-29T02:48:47.656Z,1009.77
2019-04-29T02:49:47.577Z,1009.79
2019-04-29T02:50:48.605Z,1009.73
2019-04-29T02:51:47.623Z,1009.72
2019-04-29T02:52:47.628Z,1009.73
2019-04-29T02:53:47.650Z,1009.74
2019-04-29T02:54:47.668Z,1009.73
2019-04-29T02:55:47.696Z,1009.68
2019-04-29T02:56:48.723Z,1009.68
2019-04-29T02:57:47.734Z,1009.62
2019-04-29T02:58:47.760Z,1009.61
2019-04-29T02:59:47.806Z,1009.59
2019-04-29T03:00:47.802Z,1009.56
2019-04-29T03:01:47.816Z,1009.51
2019-04-29T03:02:48.849Z,1009.49
2019-04-29T03:03:47.869Z,1009.50
2019-04-29T03:04:47.892Z,1009.49
2019-04-29T03:05:47.937Z,1009.47
2019-04-29T03:06:47.924Z,1009.49
2019-04-29T03:07:47.958Z,1009.48
2019-04-29T03:08:48.983Z,1009.43
2019-04-29T03:09:47.983Z,1009.44
2019-04-29T03:10:48.006Z,1009.42
2019-04-29T03:11:48.025Z,1009.38
2019-04-29T03:12:48.136Z,1009.44
2019-04-29T03:13:48.075Z,1009.42
2019-04-29T03:14:49.109Z,1009.44
2019-04-29T03:15:48.111Z,1009.46
2019-04-29T03:16:48.164Z,1009.41
2019-04-29T03:17:48.152Z,1009.44
2019-04-29T03:18:48.176Z,1009.37
2019-04-29T03:19:48.199Z,1009.39
2019-04-29T03:20:49.234Z,1009.37
2019-04-29T03:21:48.241Z,1009.36
2019-04-29T03:22:48.292Z,1009.30
2019-04-29T03:23:48.280Z,1009.33
2019-04-29T03:24:48.303Z,1009.32
2019-04-29T03:25:48.322Z,1009.31
2019-04-29T03:26:49.354Z,1009.31
2019-04-29T03:27:48.362Z,1009.30
2019-04-29T03:28:48.436Z,1009.27
2019-04-29T03:29:48.407Z,1009.23
2019-04-29T03:30:48.429Z,1009.23
2019-04-29T03:31:48.461Z,1009.15
2019-04-29T03:32:49.480Z,1009.12
2019-04-29T03:33:48.492Z,1009.13
2019-04-29T03:34:48.515Z,1009.19
2019-04-29T03:35:48.536Z,1009.16
2019-04-29T03:36:48.555Z,1009.13
2019-04-29T03:37:48.587Z,1009.11
2019-04-29T03:38:49.610Z,1009.10
2019-04-29T03:39:48.619Z,1009.12
2019-04-29T03:40:48.640Z,1009.10
2019-04-29T03:41:48.661Z,1009.11
2019-04-29T03:42:48.683Z,1009.11
2019-04-29T03:43:48.705Z,1009.08
2019-04-29T03:44:49.735Z,1009.08
2019-04-29T03:45:48.751Z,1009.08
2019-04-29T03:46:48.767Z,1009.06
2019-04-29T03:47:48.789Z,1009.10
2019-04-29T03:48:48.821Z,1009.11
2019-04-29T03:49:48.850Z,1009.10
2019-04-29T03:50:49.870Z,1009.09
2019-04-29T03:51:48.877Z,1009.08
2019-04-29T03:52:48.894Z,1009.05
2019-04-29T03:53:48.921Z,1009.03
2019-04-29T03:54:48.937Z,1009.07
2019-04-29T03:55:48.961Z,1009.04
2019-04-29T03:56:49.993Z,1009.05
2019-04-29T03:57:49.003Z,1009.02
2019-04-29T03:58:49.023Z,1009.02
2019-04-29T03:59:49.046Z,1008.99
2019-04-29T04:00:49.066Z,1008.95
2019-04-29T04:01:49.098Z,1008.97
2019-04-29T04:02:50.121Z,1008.94
2019-04-29T04:03:49.134Z,1008.96
2019-04-29T04:04:49.159Z,1008.93
2019-04-29T04:05:49.174Z,1008.93
2019-04-29T04:06:49.200Z,1008.94
2019-04-29T04:07:49.222Z,1008.92
2019-04-29T04:09:04.749Z,1008.89
2019-04-29T04:09:49.261Z,1008.85
2019-04-29T04:10:49.283Z,1008.89
2019-04-29T04:11:49.303Z,1008.86
2019-04-29T04:12:49.327Z,1008.90
2019-04-29T04:13:49.519Z,1008.90
2019-04-29T04:14:50.387Z,1008.89
2019-04-29T04:15:49.391Z,1008.89
2019-04-29T04:16:49.408Z,1008.88
2019-04-29T04:17:49.432Z,1008.86
2019-04-29T04:18:49.454Z,1008.87
2019-04-29T04:19:49.480Z,1008.85
2019-04-29T04:20:50.509Z,1008.83
2019-04-29T04:21:49.517Z,1008.83
2019-04-29T04:22:49.540Z,1008.80
2019-04-29T04:23:49.561Z,1008.77
2019-04-29T04:24:49.582Z,1008.72
2019-04-29T04:25:49.603Z,1008.68
2019-04-29T04:26:50.638Z,1008.66
2019-04-29T04:27:49.665Z,1008.63
2019-04-29T04:28:49.667Z,1008.59
2019-04-29T04:29:49.692Z,1008.57
2019-04-29T04:30:49.712Z,1008.56
2019-04-29T04:31:49.733Z,1008.54
2019-04-29T04:32:50.768Z,1008.54
2019-04-29T04:33:49.781Z,1008.51
2019-04-29T04:34:49.802Z,1008.52
2019-04-29T04:35:49.822Z,1008.51
2019-04-29T04:36:49.892Z,1008.48
2019-04-29T04:37:49.872Z,1008.44
2019-04-29T04:38:50.897Z,1008.43
2019-04-29T04:39:49.907Z,1008.38
2019-04-29T04:40:49.931Z,1008.35
2019-04-29T04:41:49.954Z,1008.34
2019-04-29T04:42:49.973Z,1008.32
2019-04-29T04:43:49.998Z,1008.31
2019-04-29T04:44:51.027Z,1008.32
2019-04-29T04:45:50.045Z,1008.29
2019-04-29T04:46:50.074Z,1008.28
2019-04-29T04:47:50.089Z,1008.27
2019-04-29T04:48:50.102Z,1008.26
2019-04-29T04:49:50.125Z,1008.21
2019-04-29T04:50:51.161Z,1008.21
2019-04-29T04:51:50.171Z,1008.18
2019-04-29T04:52:50.197Z,1008.19
2019-04-29T04:53:50.218Z,1008.15
2019-04-29T04:54:50.237Z,1008.13
2019-04-29T04:55:50.275Z,1008.14
2019-04-29T04:56:51.360Z,1008.08
2019-04-29T04:57:50.303Z,1008.07
2019-04-29T04:58:50.323Z,1008.03
2019-04-29T04:59:50.344Z,1008.09
2019-04-29T05:00:50.366Z,1008.08
2019-04-29T05:01:50.387Z,1008.06
2019-04-29T05:02:51.424Z,1008.01
2019-04-29T05:03:50.431Z,1008.02
2019-04-29T05:04:50.457Z,1008.00
2019-04-29T05:05:50.477Z,1008.03
2019-04-29T05:06:50.499Z,1007.97
2019-04-29T05:07:50.525Z,1008.00
2019-04-29T05:08:51.551Z,1007.98
2019-04-29T05:09:50.563Z,1007.90
2019-04-29T05:10:50.587Z,1007.89
2019-04-29T05:11:50.608Z,1007.89
2019-04-29T05:12:50.635Z,1007.90
2019-04-29T05:13:50.664Z,1007.87
2019-04-29T05:14:51.684Z,1007.88
2019-04-29T05:15:50.696Z,1007.78
2019-04-29T05:16:50.720Z,1007.80
2019-04-29T05:17:53.123Z,1007.78
2019-04-29T05:18:50.778Z,1007.76
2019-04-29T05:19:50.789Z,1007.71
2019-04-29T05:20:51.829Z,1007.68
2019-04-29T05:21:50.829Z,1007.65
2019-04-29T05:22:50.850Z,1007.66
2019-04-29T05:23:50.876Z,1007.64
2019-04-29T05:24:50.896Z,1007.59
2019-04-29T05:25:51.688Z,1007.55
2019-04-29T05:26:51.959Z,1007.53
2019-04-29T05:27:50.978Z,1007.54
2019-04-29T05:28:50.984Z,1007.51
2019-04-29T05:29:51.013Z,1007.47
2019-04-29T05:30:51.028Z,1007.41
2019-04-29T05:31:51.055Z,1007.37
2019-04-29T05:32:52.092Z,1007.29
2019-04-29T05:33:51.096Z,1007.31
2019-04-29T05:34:51.117Z,1007.30
2019-04-29T05:35:51.142Z,1007.27
2019-04-29T05:36:51.164Z,1007.22
2019-04-29T05:37:51.185Z,1007.21
2019-04-29T05:38:52.220Z,1007.12
2019-04-29T05:39:51.228Z,1007.17
2019-04-29T05:40:51.255Z,1007.09
2019-04-29T05:41:51.276Z,1007.09
2019-04-29T05:42:52.587Z,1007.04
2019-04-29T05:43:51.523Z,1007.01
2019-04-29T05:44:52.975Z,1006.95
2019-04-29T05:45:51.449Z,1006.94
2019-04-29T05:46:51.387Z,1006.94
2019-04-29T05:47:52.497Z,1006.94
2019-04-29T05:48:51.430Z,1006.87
2019-04-29T05:49:51.454Z,1006.85
2019-04-29T05:50:53.240Z,1006.81
2019-04-29T05:51:51.502Z,1006.80
2019-04-29T05:52:51.520Z,1006.83
2019-04-29T05:53:54.849Z,1006.78
2019-04-29T05:54:51.565Z,1006.75
2019-04-29T05:55:52.697Z,1006.74
2019-04-29T05:56:52.625Z,1006.73
2019-04-29T05:57:55.911Z,1006.72
2019-04-29T05:58:51.654Z,1006.73
2019-04-29T05:59:51.691Z,1006.73
2019-04-29T06:00:51.700Z,1006.72
2019-04-29T06:01:51.724Z,1006.70
2019-04-29T06:02:52.761Z,1006.69
2019-04-29T06:03:51.768Z,1006.63
2019-04-29T06:04:52.347Z,1006.63
2019-04-29T06:05:51.811Z,1006.61
2019-04-29T06:06:51.836Z,1006.57
2019-04-29T06:07:56.022Z,1006.60
2019-04-29T06:08:52.895Z,1006.58
2019-04-29T06:09:51.903Z,1006.59
2019-04-29T06:10:51.924Z,1006.55
2019-04-29T06:11:51.948Z,1006.56
2019-04-29T06:12:51.972Z,1006.54
2019-04-29T06:13:51.997Z,1006.53
2019-04-29T06:14:53.141Z,1006.49
2019-04-29T06:15:52.038Z,1006.47
2019-04-29T06:16:52.916Z,1006.47
2019-04-29T06:17:52.083Z,1006.46
2019-04-29T06:18:59.389Z,1006.46
2019-04-29T06:19:52.128Z,1006.45
2019-04-29T06:20:53.163Z,1006.46
2019-04-29T06:21:52.183Z,1006.44
2019-04-29T06:22:52.294Z,1006.41
2019-04-29T06:23:54.591Z,1006.41
2019-04-29T06:24:52.241Z,1006.40
2019-04-29T06:25:52.277Z,1006.38
2019-04-29T06:26:53.298Z,1006.33
2019-04-29T06:27:52.308Z,1006.35
2019-04-29T06:28:52.334Z,1006.32
2019-04-29T06:29:52.356Z,1006.32
2019-04-29T06:30:52.379Z,1006.31
2019-04-29T06:31:52.398Z,1006.26
2019-04-29T06:32:53.507Z,1006.26
2019-04-29T06:33:52.445Z,1006.24
2019-04-29T06:34:52.469Z,1006.21
2019-04-29T06:35:52.491Z,1006.15
2019-04-29T06:36:52.512Z,1006.19
2019-04-29T06:37:52.535Z,1006.14
2019-04-29T06:38:53.569Z,1006.15
2019-04-29T06:39:52.583Z,1006.06
2019-04-29T06:40:52.602Z,1006.04
2019-04-29T06:41:52.627Z,1006.04
2019-04-29T06:42:53.483Z,1005.97
2019-04-29T06:43:55.866Z,1005.92
2019-04-29T06:44:53.705Z,1005.90
2019-04-29T06:45:52.720Z,1005.89
2019-04-29T06:46:54.404Z,1005.87
2019-04-29T06:47:52.763Z,1005.85
2019-04-29T06:48:52.785Z,1005.83
2019-04-29T06:49:52.814Z,1005.83
2019-04-29T06:50:53.844Z,1005.82
2019-04-29T06:51:52.855Z,1005.79
2019-04-29T06:52:52.878Z,1005.83
2019-04-29T06:53:52.898Z,1005.77
2019-04-29T06:54:52.931Z,1005.73
2019-04-29T06:55:52.949Z,1005.73
2019-04-29T06:56:53.978Z,1005.68
2019-04-29T06:57:52.989Z,1005.70
2019-04-29T06:58:53.011Z,1005.72
2019-04-29T06:59:54.767Z,1005.65
2019-04-29T07:00:55.918Z,1005.64
2019-04-29T07:01:53.083Z,1005.56
2019-04-29T07:02:54.115Z,1005.51
2019-04-29T07:03:55.792Z,1005.46
2019-04-29T07:04:53.149Z,1005.46
2019-04-29T07:05:53.171Z,1005.52
2019-04-29T07:06:57.727Z,1005.50
2019-04-29T07:07:53.226Z,1005.40
2019-04-29T07:08:54.254Z,1005.42
2019-04-29T07:09:56.556Z,1005.42
2019-04-29T07:10:55.996Z,1005.39
2019-04-29T07:11:53.306Z,1005.41
2019-04-29T07:12:53.332Z,1005.36
2019-04-29T07:13:53.605Z,1005.37
2019-04-29T07:14:54.395Z,1005.35
2019-04-29T07:15:54.245Z,1005.35
2019-04-29T07:16:53.422Z,1005.34
2019-04-29T07:17:53.446Z,1005.35
2019-04-29T07:18:53.813Z,1005.34
2019-04-29T07:19:53.488Z,1005.30
2019-04-29T07:20:54.521Z,1005.32
2019-04-29T07:21:56.468Z,1005.30
2019-04-29T07:22:56.567Z,1005.30
2019-04-29T07:23:53.589Z,1005.28
2019-04-29T07:24:53.603Z,1005.25
2019-04-29T07:25:53.628Z,1005.26
2019-04-29T07:26:57.780Z,1005.24
2019-04-29T07:27:53.671Z,1005.22
2019-04-29T07:28:56.676Z,1005.22
2019-04-29T07:29:53.718Z,1005.19
2019-04-29T07:31:02.784Z,1005.17
2019-04-29T07:31:53.763Z,1005.19
2019-04-29T07:32:54.796Z,1005.17
2019-04-29T07:33:57.869Z,1005.13
2019-04-29T07:34:53.830Z,1005.13
2019-04-29T07:35:53.852Z,1005.10
2019-04-29T07:36:57.645Z,1005.12
2019-04-29T07:37:53.898Z,1005.12
2019-04-29T07:38:56.560Z,1005.11
2019-04-29T07:39:54.017Z,1005.06
2019-04-29T07:40:53.975Z,1005.07
2019-04-29T07:41:54.729Z,1005.07
2019-04-29T07:42:54.015Z,1005.03
2019-04-29T07:43:54.034Z,1005.01
2019-04-29T07:44:55.074Z,1005.04
2019-04-29T07:45:54.082Z,1005.02
2019-04-29T07:47:01.935Z,1004.99
2019-04-29T07:47:56.521Z,1005.01
2019-04-29T07:49:01.507Z,1004.99
2019-04-29T07:49:54.225Z,1005.00
2019-04-29T07:50:55.206Z,1004.98
2019-04-29T07:51:54.220Z,1004.99
2019-04-29T07:52:54.239Z,1005.02
2019-04-29T07:53:54.264Z,1005.01
2019-04-29T07:54:56.053Z,1004.94
2019-04-29T07:55:54.310Z,1004.90
2019-04-29T07:56:55.340Z,1004.91
2019-04-29T07:57:54.356Z,1004.86
2019-04-29T07:58:54.376Z,1004.86
2019-04-29T07:59:54.400Z,1004.82
2019-04-29T08:00:56.259Z,1004.79
2019-04-29T08:01:55.726Z,1004.86
2019-04-29T08:02:55.479Z,1004.87
2019-04-29T08:03:54.490Z,1004.81
2019-04-29T08:04:54.514Z,1004.82
2019-04-29T08:05:54.533Z,1004.77
2019-04-29T08:06:54.557Z,1004.76
2019-04-29T08:07:54.606Z,1004.71
2019-04-29T08:08:58.906Z,1004.71
2019-04-29T08:09:54.626Z,1004.69
2019-04-29T08:10:56.732Z,1004.68
2019-04-29T08:11:54.672Z,1004.72
2019-04-29T08:12:54.692Z,1004.70
2019-04-29T08:13:54.716Z,1004.66
2019-04-29T08:14:58.615Z,1004.69
2019-04-29T08:15:54.768Z,1004.66
2019-04-29T08:16:54.784Z,1004.61
2019-04-29T08:18:05.921Z,1004.60
2019-04-29T08:18:54.978Z,1004.56
2019-04-29T08:19:54.855Z,1004.52
2019-04-29T08:20:55.888Z,1004.51
2019-04-29T08:21:54.898Z,1004.54
2019-04-29T08:22:58.385Z,1004.55
2019-04-29T08:23:54.944Z,1004.54
2019-04-29T08:24:54.966Z,1004.53
2019-04-29T08:25:57.651Z,1004.54
2019-04-29T08:26:56.025Z,1004.55
2019-04-29T08:27:55.036Z,1004.52
2019-04-29T08:29:00.453Z,1004.50
2019-04-29T08:29:55.852Z,1004.51
2019-04-29T08:30:55.290Z,1004.48
2019-04-29T08:31:56.775Z,1004.46
2019-04-29T08:32:56.161Z,1004.44
2019-04-29T08:33:55.169Z,1004.42
2019-04-29T08:34:58.326Z,1004.39
2019-04-29T08:35:55.219Z,1004.39
2019-04-29T08:36:55.283Z,1004.41
2019-04-29T08:37:55.261Z,1004.35
2019-04-29T08:39:07.933Z,1004.35
2019-04-29T08:40:14.702Z,1004.30
2019-04-29T08:40:55.331Z,1004.32
2019-04-29T08:41:58.802Z,1004.32
2019-04-29T08:42:55.376Z,1004.34
2019-04-29T08:43:57.838Z,1004.38
2019-04-29T08:44:59.756Z,1004.35
2019-04-29T08:45:55.443Z,1004.41
2019-04-29T08:46:55.466Z,1004.37
2019-04-29T08:47:55.493Z,1004.34
2019-04-29T08:48:55.513Z,1004.38
2019-04-29T08:49:55.556Z,1004.36
2019-04-29T08:50:56.569Z,1004.38
2019-04-29T08:51:55.581Z,1004.36
2019-04-29T08:52:55.606Z,1004.37
2019-04-29T08:53:55.629Z,1004.31
2019-04-29T08:54:57.310Z,1004.33
2019-04-29T08:55:55.680Z,1004.28
2019-04-29T08:57:02.761Z,1004.30
2019-04-29T08:57:55.719Z,1004.32
2019-04-29T08:58:55.739Z,1004.29
2019-04-29T08:59:55.761Z,1004.31
2019-04-29T09:00:57.525Z,1004.25
2019-04-29T09:01:55.809Z,1004.30
2019-04-29T09:02:56.891Z,1004.26
2019-04-29T09:03:58.027Z,1004.25
2019-04-29T09:04:55.876Z,1004.26
2019-04-29T09:06:05.248Z,1004.27
2019-04-29T09:06:55.941Z,1004.29
2019-04-29T09:07:57.383Z,1004.28
2019-04-29T09:08:59.578Z,1004.31
2019-04-29T09:10:01.408Z,1004.34
2019-04-29T09:10:56.011Z,1004.34
2019-04-29T09:11:56.034Z,1004.29
2019-04-29T09:12:56.051Z,1004.28
2019-04-29T09:13:56.078Z,1004.26
2019-04-29T09:14:57.112Z,1004.27
2019-04-29T09:15:56.124Z,1004.24
2019-04-29T09:16:56.143Z,1004.22
2019-04-29T09:17:56.168Z,1004.17
2019-04-29T09:18:56.195Z,1004.19
2019-04-29T09:19:56.216Z,1004.11
2019-04-29T09:20:57.243Z,1004.18
2019-04-29T09:21:56.253Z,1004.14
2019-04-29T09:22:56.343Z,1004.17
2019-04-29T09:23:56.302Z,1004.10
2019-04-29T09:24:56.343Z,1004.16
2019-04-29T09:26:02.864Z,1004.18
2019-04-29T09:26:57.528Z,1004.17
2019-04-29T09:27:56.576Z,1004.18
2019-04-29T09:28:59.682Z,1004.15
2019-04-29T09:29:58.814Z,1004.11
2019-04-29T09:30:57.388Z,1004.13
2019-04-29T09:31:56.475Z,1004.15
2019-04-29T09:32:57.510Z,1004.15
2019-04-29T09:34:06.294Z,1004.13
2019-04-29T09:34:59.486Z,1004.19
2019-04-29T09:35:56.565Z,1004.20
2019-04-29T09:36:56.587Z,1004.23
2019-04-29T09:37:58.421Z,1004.20
2019-04-29T09:38:57.643Z,1004.16
2019-04-29T09:39:56.658Z,1004.19
2019-04-29T09:40:59.799Z,1004.14
2019-04-29T09:41:56.699Z,1004.15
2019-04-29T09:42:57.084Z,1004.18
2019-04-29T09:43:59.285Z,1004.17
2019-04-29T09:44:57.774Z,1004.20
2019-04-29T09:45:58.763Z,1004.17
2019-04-29T09:46:56.812Z,1004.13
2019-04-29T09:47:56.834Z,1004.14
2019-04-29T09:48:56.860Z,1004.17
2019-04-29T09:49:56.874Z,1004.21
2019-04-29T09:50:57.939Z,1004.19
2019-04-29T09:51:56.941Z,1004.17
2019-04-29T09:52:56.941Z,1004.22
2019-04-29T09:53:56.973Z,1004.19
2019-04-29T09:54:59.490Z,1004.20
2019-04-29T09:55:57.014Z,1004.21
2019-04-29T09:56:58.058Z,1004.16
2019-04-29T09:57:57.058Z,1004.23
2019-04-29T09:58:57.082Z,1004.24
2019-04-29T10:00:00.133Z,1004.20
2019-04-29T10:00:58.536Z,1004.20
2019-04-29T10:01:57.145Z,1004.16
2019-04-29T10:02:58.188Z,1004.20
2019-04-29T10:03:57.188Z,1004.19
2019-04-29T10:04:57.210Z,1004.20
2019-04-29T10:05:57.232Z,1004.17
2019-04-29T10:06:57.264Z,1004.16
2019-04-29T10:07:57.271Z,1004.19
2019-04-29T10:08:58.313Z,1004.16
2019-04-29T10:10:01.831Z,1004.23
2019-04-29T10:10:57.339Z,1004.27
2019-04-29T10:11:57.362Z,1004.22
2019-04-29T10:12:57.384Z,1004.25
2019-04-29T10:13:57.402Z,1004.22
2019-04-29T10:14:58.447Z,1004.21
2019-04-29T10:16:00.464Z,1004.25
2019-04-29T10:16:57.483Z,1004.20
2019-04-29T10:17:57.493Z,1004.15
2019-04-29T10:19:00.768Z,1004.18
2019-04-29T10:19:57.536Z,1004.13
2019-04-29T10:20:58.580Z,1004.13
2019-04-29T10:21:57.812Z,1004.14
2019-04-29T10:22:57.796Z,1004.10
2019-04-29T10:23:57.625Z,1004.06
2019-04-29T10:24:57.645Z,1004.08
2019-04-29T10:25:57.665Z,1004.05
2019-04-29T10:26:58.698Z,1004.05
2019-04-29T10:27:57.712Z,1004.09
2019-04-29T10:28:57.737Z,1004.11
2019-04-29T10:29:57.895Z,1004.18
2019-04-29T10:30:57.777Z,1004.20
2019-04-29T10:31:57.801Z,1004.18
2019-04-29T10:32:58.889Z,1004.22
2019-04-29T10:33:57.860Z,1004.21
2019-04-29T10:34:57.866Z,1004.20
2019-04-29T10:35:57.902Z,1004.18
2019-04-29T10:36:57.949Z,1004.18
2019-04-29T10:37:57.928Z,1004.17
2019-04-29T10:38:58.959Z,1004.19
2019-04-29T10:40:10.647Z,1004.20
2019-04-29T10:41:00.649Z,1004.20
2019-04-29T10:41:58.071Z,1004.21
2019-04-29T10:42:58.056Z,1004.23
2019-04-29T10:43:58.058Z,1004.21
2019-04-29T10:44:59.093Z,1004.19
2019-04-29T10:45:58.103Z,1004.25
2019-04-29T10:46:58.121Z,1004.27
2019-04-29T10:47:58.145Z,1004.26
2019-04-29T10:48:59.063Z,1004.31
2019-04-29T10:49:58.388Z,1004.39
2019-04-29T10:50:59.222Z,1004.39
2019-04-29T10:52:03.004Z,1004.40
2019-04-29T10:52:58.258Z,1004.40
2019-04-29T10:53:58.276Z,1004.38
2019-04-29T10:54:58.316Z,1004.39
2019-04-29T10:56:01.019Z,1004.40
2019-04-29T10:56:59.350Z,1004.46
2019-04-29T10:57:58.362Z,1004.51
2019-04-29T10:58:58.382Z,1004.53
2019-04-29T11:00:00.946Z,1004.51
2019-04-29T11:00:58.525Z,1004.53
2019-04-29T11:02:01.356Z,1004.53
2019-04-29T11:02:59.482Z,1004.57
2019-04-29T11:04:00.894Z,1004.55
2019-04-29T11:04:58.510Z,1004.60
2019-04-29T11:06:01.691Z,1004.61
2019-04-29T11:06:58.553Z,1004.67
2019-04-29T11:08:02.562Z,1004.65
2019-04-29T11:08:59.608Z,1004.68
2019-04-29T11:09:58.619Z,1004.67
2019-04-29T11:11:02.405Z,1004.73
2019-04-29T11:11:58.660Z,1004.74
2019-04-29T11:12:58.717Z,1004.78
2019-04-29T11:14:01.519Z,1004.75
2019-04-29T11:15:01.514Z,1004.79
2019-04-29T11:15:58.746Z,1004.77
2019-04-29T11:16:58.769Z,1004.82
2019-04-29T11:18:01.715Z,1004.81
2019-04-29T11:18:59.721Z,1004.85
2019-04-29T11:19:58.836Z,1004.86
2019-04-29T11:20:59.871Z,1004.86
2019-04-29T11:22:02.162Z,1004.92
2019-04-29T11:22:58.896Z,1004.91
2019-04-29T11:23:58.918Z,1004.94
2019-04-29T11:24:58.967Z,1004.95
2019-04-29T11:25:58.961Z,1004.95
2019-04-29T11:27:11.274Z,1005.01
2019-04-29T11:27:59.008Z,1004.99
2019-04-29T11:28:59.131Z,1005.01
2019-04-29T11:30:03.133Z,1005.03
2019-04-29T11:30:59.068Z,1005.03
2019-04-29T11:31:59.091Z,1005.01
2019-04-29T11:33:04.528Z,1005.06
2019-04-29T11:33:59.134Z,1005.10
2019-04-29T11:34:59.155Z,1005.12
2019-04-29T11:36:03.385Z,1005.13
2019-04-29T11:36:59.193Z,1005.15
2019-04-29T11:37:59.970Z,1005.14
2019-04-29T11:39:00.249Z,1005.17
2019-04-29T11:39:59.264Z,1005.21
2019-04-29T11:40:59.289Z,1005.23
2019-04-29T11:42:01.291Z,1005.25
2019-04-29T11:42:59.324Z,1005.31
2019-04-29T11:43:59.346Z,1005.31
2019-04-29T11:45:02.125Z,1005.35
2019-04-29T11:45:59.495Z,1005.38
2019-04-29T11:46:59.498Z,1005.39
2019-04-29T11:47:59.437Z,1005.40
2019-04-29T11:48:59.454Z,1005.45
2019-04-29T11:49:59.482Z,1005.48
2019-04-29T11:51:00.510Z,1005.46
2019-04-29T11:52:09.215Z,1005.49
2019-04-29T11:52:59.534Z,1005.47
2019-04-29T11:53:59.560Z,1005.52
2019-04-29T11:54:59.579Z,1005.49
2019-04-29T11:55:59.644Z,1005.61
2019-04-29T11:57:00.630Z,1005.63
2019-04-29T11:57:59.639Z,1005.64
2019-04-29T11:58:59.672Z,1005.66
2019-04-29T11:59:59.681Z,1005.66
2019-04-29T12:00:59.703Z,1005.62
2019-04-29T12:01:59.903Z,1005.64
2019-04-29T12:03:00.755Z,1005.67
2019-04-29T12:03:59.767Z,1005.69
2019-04-29T12:04:59.885Z,1005.74
2019-04-29T12:05:59.808Z,1005.71